Time;durP1;ratioP1;P1;durP2;ratioP2;P2;SDS_P1;SDS_P2;PMS_P1;PMS_P2;Temp;Humidity;BMP_temperature;BMP_pressure;BME280_temperature;BME280_humidity;BME280_pressure;Samples;Min_cycle;Max_cycle;Signal;HPM_P1;HPM_P2
2023/04/16 00:00:47;;;;;;;50.63;22.27;;;8.30;99.90;;;;;;5074201;28;20028;-47
2023/04/16 00:03:14;;;;;;;48.70;23.47;;;8.40;99.90;;;;;;5074014;28;20493;-48
2023/04/16 00:05:40;;;;;;;44.57;21.27;;;8.40;99.90;;;;;;5073946;28;20032;-50
2023/04/16 00:08:05;;;;;;;41.33;19.43;;;8.40;99.90;;;;;;5073937;28;20400;-48
2023/04/16 00:10:31;;;;;;;35.90;18.10;;;8.40;99.90;;;;;;5073944;28;20029;-49
2023/04/16 00:12:57;;;;;;;38.37;18.43;;;8.30;99.90;;;;;;5073967;28;20115;-47
2023/04/16 00:15:23;;;;;;;37.43;18.60;;;8.30;99.90;;;;;;5073693;28;20021;-50
2023/04/16 00:17:48;;;;;;;35.50;17.77;;;8.30;99.90;;;;;;5073437;28;20094;-50
2023/04/16 00:20:14;;;;;;;39.50;18.37;;;8.30;99.90;;;;;;5073334;28;20033;-48
2023/04/16 00:22:39;;;;;;;33.60;17.10;;;8.40;99.90;;;;;;5073966;28;20082;-50
2023/04/16 00:25:05;;;;;;;40.33;18.97;;;8.40;99.90;;;;;;5073479;28;20029;-49
2023/04/16 00:27:31;;;;;;;43.53;18.47;;;8.30;99.90;;;;;;5073250;28;20040;-48
2023/04/16 00:29:57;;;;;;;40.43;19.30;;;8.30;99.90;;;;;;5073480;28;20025;-51
2023/04/16 00:32:23;;;;;;;40.50;18.00;;;8.30;99.90;;;;;;5073342;28;20055;-51
2023/04/16 00:34:49;;;;;;;43.30;18.40;;;8.30;99.90;;;;;;5073285;28;20035;-52
2023/04/16 00:37:15;;;;;;;40.13;18.70;;;8.30;99.90;;;;;;5071934;28;20393;-51
2023/04/16 00:39:40;;;;;;;35.70;18.77;;;8.20;99.90;;;;;;5073444;28;20116;-50
2023/04/16 00:42:06;;;;;;;38.27;19.00;;;8.20;99.90;;;;;;5073402;28;20036;-47
2023/04/16 00:44:34;;;;;;;39.17;18.53;;;8.20;99.90;;;;;;5073279;28;20036;-49
2023/04/16 00:47:01;;;;;;;42.60;21.43;;;8.30;99.90;;;;;;5071561;28;20063;-49
2023/04/16 00:49:28;;;;;;;50.27;22.33;;;8.30;99.90;;;;;;5073425;28;20028;-48
2023/04/16 00:51:56;;;;;;;50.92;25.75;;;8.30;99.90;;;;;;5072023;28;20032;-50
2023/04/16 00:54:23;;;;;;;49.13;25.07;;;8.30;99.90;;;;;;5071780;28;20036;-53
2023/04/16 00:56:50;;;;;;;42.03;22.83;;;8.40;99.90;;;;;;5073006;28;20040;-48
2023/04/16 00:59:16;;;;;;;42.87;23.80;;;8.40;99.90;;;;;;5073105;28;20093;-51
2023/04/16 01:01:42;;;;;;;44.73;24.33;;;8.40;99.90;;;;;;5073129;28;20107;-50
2023/04/16 01:04:08;;;;;;;45.37;24.03;;;8.30;99.90;;;;;;5073015;28;20020;-48
2023/04/16 01:06:33;;;;;;;56.37;26.13;;;8.30;99.90;;;;;;5071626;28;20033;-49
2023/04/16 01:08:59;;;;;;;56.90;27.00;;;8.30;99.90;;;;;;5072375;28;20393;-47
2023/04/16 01:11:25;;;;;;;58.00;29.07;;;8.30;99.90;;;;;;5073118;28;20540;-48
2023/04/16 01:13:51;;;;;;;58.50;27.90;;;8.30;99.90;;;;;;5071584;28;20485;-51
2023/04/16 01:16:17;;;;;;;46.57;24.03;;;8.30;99.90;;;;;;5071453;28;20089;-48
2023/04/16 01:18:42;;;;;;;54.70;24.90;;;8.30;99.90;;;;;;5072840;28;20029;-52
2023/04/16 01:21:08;;;;;;;51.23;24.10;;;8.30;99.90;;;;;;5073149;28;20071;-49
2023/04/16 01:23:34;;;;;;;53.97;25.43;;;8.30;99.90;;;;;;5071496;28;20427;-48
2023/04/16 01:28:30;;;;;;;;;;;8.30;99.90;;;;;;4989734;28;20054;-51
2023/04/16 01:30:56;;;;;;;62.07;26.27;;;8.30;99.90;;;;;;4993478;28;19921;-51
2023/04/16 01:33:57;;;;;;;57.70;25.83;;;8.30;99.90;;;;;;4988997;28;20039;-48
2023/04/16 01:36:22;;;;;;;62.80;26.57;;;8.30;99.90;;;;;;4995811;28;20029;-49
2023/04/16 01:38:48;;;;;;;53.57;25.40;;;8.30;99.90;;;;;;4995305;28;20072;-50
2023/04/16 01:41:14;;;;;;;53.03;26.20;;;8.30;99.90;;;;;;5012851;28;20479;-50
2023/04/16 01:43:41;;;;;;;55.57;24.63;;;8.20;99.90;;;;;;5012926;28;20040;-48
2023/04/16 01:46:22;;;;;;;53.67;24.87;;;8.20;99.90;;;;;;5012726;28;20482;-50
2023/04/16 01:48:48;;;;;;;57.30;24.70;;;8.20;99.90;;;;;;5012639;28;20515;-49
2023/04/16 01:51:14;;;;;;;60.60;26.07;;;8.20;99.90;;;;;;4995179;28;20237;-50
2023/04/16 01:53:39;;;;;;;59.20;27.70;;;8.20;99.90;;;;;;4994795;28;20025;-50
2023/04/16 01:56:05;;;;;;;58.33;25.10;;;8.10;99.90;;;;;;5012431;28;20057;-49
2023/04/16 01:58:31;;;;;;;57.23;25.40;;;8.10;99.90;;;;;;4994739;28;20042;-49
2023/04/16 02:00:58;;;;;;;57.90;25.80;;;8.20;99.90;;;;;;4994990;28;20062;-49
2023/04/16 02:03:24;;;;;;;53.93;24.00;;;8.20;99.90;;;;;;4994627;28;20029;-51
2023/04/16 02:05:50;;;;;;;59.87;26.97;;;8.20;99.90;;;;;;4994912;28;20033;-51
2023/04/16 02:08:16;;;;;;;60.17;27.53;;;8.10;99.90;;;;;;5011885;28;20121;-49
2023/04/16 02:10:46;;;;;;;74.90;31.47;;;8.20;99.90;;;;;;5012384;28;20030;-51
2023/04/16 02:13:12;;;;;;;69.22;30.77;;;8.20;99.90;;;;;;4994709;28;20053;-51
2023/04/16 02:15:38;;;;;;;65.13;30.40;;;8.30;99.90;;;;;;5010789;28;20080;-51
2023/04/16 02:18:04;;;;;;;72.60;31.50;;;8.30;99.90;;;;;;4994240;28;20486;-51
2023/04/16 02:20:30;;;;;;;66.97;30.57;;;8.20;99.90;;;;;;4993551;28;20117;-52
2023/04/16 02:22:59;;;;;;;71.13;29.45;;;8.30;99.90;;;;;;4994575;28;20026;-51
2023/04/16 02:25:25;;;;;;;77.17;30.47;;;8.30;99.90;;;;;;4978183;28;20051;-51
2023/04/16 02:27:55;;;;;;;78.80;32.03;;;8.30;99.90;;;;;;4994361;28;20046;-51
2023/04/16 02:30:30;;;;;;;78.90;31.53;;;8.40;99.90;;;;;;4994366;28;20026;-51
2023/04/16 02:32:56;;;;;;;80.07;30.30;;;8.30;99.90;;;;;;5012012;28;20057;-51
2023/04/16 02:35:22;;;;;;;79.83;30.63;;;8.30;99.90;;;;;;4994028;28;20022;-51
2023/04/16 02:37:48;;;;;;;85.97;32.97;;;8.20;99.90;;;;;;4994113;28;20033;-49
2023/04/16 02:40:14;;;;;;;80.27;31.37;;;8.20;99.90;;;;;;5011858;28;20030;-51
2023/04/16 02:42:40;;;;;;;80.43;30.20;;;8.30;99.90;;;;;;4994227;28;20442;-51
2023/04/16 02:45:07;;;;;;;84.10;31.80;;;8.30;99.90;;;;;;4993869;28;20536;-53
2023/04/16 02:47:33;;;;;;;73.23;30.57;;;8.30;99.90;;;;;;4993660;28;20422;-51
2023/04/16 02:49:59;;;;;;;81.30;31.47;;;8.30;99.90;;;;;;5011711;28;20037;-48
2023/04/16 02:52:24;;;;;;;71.57;27.77;;;8.30;99.90;;;;;;5011689;28;20064;-50
2023/04/16 02:54:50;;;;;;;61.80;25.57;;;8.30;99.90;;;;;;5011503;28;20029;-49
2023/04/16 02:57:16;;;;;;;62.57;25.30;;;8.30;99.90;;;;;;4993658;28;20025;-52
2023/04/16 02:59:41;;;;;;;60.97;24.83;;;8.30;99.90;;;;;;4993822;28;20037;-50
2023/04/16 03:02:07;;;;;;;64.03;26.00;;;8.20;99.90;;;;;;5011471;28;20117;-48
2023/04/16 03:04:33;;;;;;;64.43;26.10;;;8.20;99.90;;;;;;4993617;28;20037;-48
2023/04/16 03:06:58;;;;;;;64.17;26.17;;;8.20;99.90;;;;;;4993687;28;20036;-49
2023/04/16 03:09:24;;;;;;;61.07;27.10;;;8.30;99.90;;;;;;5011294;28;20030;-48
2023/04/16 03:11:50;;;;;;;60.23;26.20;;;8.30;99.90;;;;;;5011492;28;20052;-49
2023/04/16 03:14:16;;;;;;;60.97;26.43;;;8.20;99.90;;;;;;5011152;28;20036;-53
2023/04/16 03:16:41;;;;;;;61.87;25.83;;;8.20;99.90;;;;;;4993417;28;20040;-51
2023/04/16 03:19:07;;;;;;;55.00;24.87;;;8.20;99.90;;;;;;5011251;28;20048;-49
2023/04/16 03:21:33;;;;;;;59.77;25.13;;;8.30;99.90;;;;;;5011275;28;20038;-48
2023/04/16 03:23:58;;;;;;;64.73;25.70;;;8.30;99.90;;;;;;5012236;28;20116;-52
2023/04/16 03:26:24;;;;;;;67.17;27.53;;;8.30;99.90;;;;;;5019446;28;20032;-51
2023/04/16 03:28:50;;;;;;;61.23;27.40;;;8.30;99.90;;;;;;5014870;28;20034;-50
2023/04/16 03:31:16;;;;;;;67.73;27.47;;;8.30;99.90;;;;;;4994200;28;20029;-50
2023/04/16 03:33:41;;;;;;;58.27;26.33;;;8.30;99.90;;;;;;5017357;28;20026;-53
2023/04/16 03:36:07;;;;;;;62.17;25.57;;;8.30;99.90;;;;;;5017551;28;20101;-52
2023/04/16 03:38:33;;;;;;;58.63;24.77;;;8.40;99.90;;;;;;5016029;28;20034;-52
2023/04/16 03:40:59;;;;;;;64.77;28.40;;;8.40;99.90;;;;;;5017634;28;20403;-52
2023/04/16 03:43:25;;;;;;;65.00;29.40;;;8.40;99.90;;;;;;4999624;28;20026;-51
2023/04/16 03:45:51;;;;;;;67.67;28.10;;;8.30;99.90;;;;;;4999775;28;20103;-51
2023/04/16 03:48:20;;;;;;;63.90;28.58;;;8.40;99.90;;;;;;5015794;28;20037;-50
2023/04/16 03:50:46;;;;;;;71.13;30.90;;;8.40;99.90;;;;;;5017379;28;20026;-55
2023/04/16 03:53:13;;;;;;;68.37;28.70;;;8.40;99.90;;;;;;4999679;28;20030;-53
2023/04/16 03:55:40;;;;;;;63.13;26.93;;;8.40;99.90;;;;;;4999388;28;20030;-51
2023/04/16 03:58:07;;;;;;;66.80;28.30;;;8.40;99.90;;;;;;4999286;28;20482;-50
2023/04/16 04:00:33;;;;;;;62.83;27.93;;;8.50;99.90;;;;;;4999268;28;20041;-49
2023/04/16 04:03:06;;;;;;;66.67;27.10;;;8.40;99.90;;;;;;5015869;28;20500;-49
2023/04/16 04:05:38;;;;;;;65.83;28.37;;;8.50;99.90;;;;;;4999241;28;20033;-48
2023/04/16 04:08:04;;;;;;;68.90;29.77;;;8.40;99.90;;;;;;4999097;28;20040;-52
2023/04/16 04:10:32;;;;;;;78.67;30.67;;;8.40;99.90;;;;;;4999345;28;20026;-52
2023/04/16 04:13:00;;;;;;;65.37;28.43;;;8.40;99.90;;;;;;4999293;28;20026;-50
2023/04/16 04:15:26;;;;;;;72.20;28.67;;;8.40;99.90;;;;;;4999075;28;20368;-51
2023/04/16 04:17:53;;;;;;;87.63;32.17;;;8.50;99.90;;;;;;4999015;28;20498;-51
2023/04/16 04:20:19;;;;;;;77.30;30.37;;;8.50;99.90;;;;;;5015551;28;20061;-48
2023/04/16 04:22:46;;;;;;;79.83;31.23;;;8.40;99.90;;;;;;5015629;28;20068;-51
2023/04/16 04:25:12;;;;;;;75.63;30.70;;;8.50;99.90;;;;;;4998990;28;20049;-48
2023/04/16 04:27:38;;;;;;;70.70;29.03;;;8.40;99.90;;;;;;4998572;28;20490;-50
2023/04/16 04:30:04;;;;;;;71.93;29.50;;;8.50;99.90;;;;;;4999237;28;20493;-50
2023/04/16 04:32:31;;;;;;;85.00;32.07;;;8.50;99.90;;;;;;4999189;28;20040;-51
2023/04/16 04:34:57;;;;;;;88.23;33.40;;;8.50;99.90;;;;;;4998934;28;20034;-51
2023/04/16 04:37:23;;;;;;;82.50;31.73;;;8.50;99.90;;;;;;5016592;28;20022;-48
2023/04/16 04:39:49;;;;;;;79.03;32.47;;;8.40;99.90;;;;;;4999034;28;20513;-49
2023/04/16 04:42:20;;;;;;;87.80;33.33;;;8.40;99.90;;;;;;5016672;28;20505;-47
2023/04/16 04:44:46;;;;;;;89.87;32.07;;;8.50;99.90;;;;;;4994807;28;20482;-49
2023/04/16 04:47:13;;;;;;;82.20;32.83;;;8.40;99.90;;;;;;4995589;28;20149;-48
2023/04/16 04:49:39;;;;;;;83.00;32.33;;;8.40;99.90;;;;;;4995941;28;20038;-49
2023/04/16 04:52:05;;;;;;;76.73;31.03;;;8.40;99.90;;;;;;4996032;28;20026;-51
2023/04/16 04:54:31;;;;;;;78.07;31.53;;;8.40;99.90;;;;;;5013176;28;20029;-51
2023/04/16 04:56:58;;;;;;;64.73;26.43;;;8.50;99.90;;;;;;4995420;28;20500;-49
2023/04/16 04:59:24;;;;;;;62.97;26.07;;;8.50;99.90;;;;;;4995648;28;20117;-48
2023/04/16 05:01:50;;;;;;;66.30;26.37;;;8.50;99.90;;;;;;5000768;28;20096;-49
2023/04/16 05:04:16;;;;;;;61.30;26.20;;;8.60;99.90;;;;;;5024344;28;20033;-49
2023/04/16 05:06:43;;;;;;;57.03;25.80;;;8.60;99.90;;;;;;5032789;28;20033;-48
2023/04/16 05:09:10;;;;;;;57.63;25.90;;;8.50;99.90;;;;;;5032859;28;20033;-49
2023/04/16 05:11:41;;;;;;;59.20;26.20;;;8.50;99.90;;;;;;5032812;28;20067;-49
2023/04/16 05:14:07;;;;;;;67.73;27.57;;;8.50;99.90;;;;;;5032481;28;20112;-50
2023/04/16 05:16:35;;;;;;;60.90;26.60;;;8.50;99.90;;;;;;5003813;28;20394;-50
2023/04/16 05:19:01;;;;;;;62.30;27.03;;;8.50;99.90;;;;;;5020162;28;20381;-49
2023/04/16 05:21:27;;;;;;;60.93;26.73;;;8.50;99.90;;;;;;5023415;28;20026;-50
2023/04/16 05:23:53;;;;;;;68.40;26.77;;;8.50;99.90;;;;;;5023443;28;20033;-48
2023/04/16 05:26:18;;;;;;;63.33;25.80;;;8.60;99.90;;;;;;5023224;28;20053;-49
2023/04/16 05:28:44;;;;;;;58.33;24.93;;;8.60;99.90;;;;;;5016094;28;20076;-51
2023/04/16 05:31:10;;;;;;;55.37;24.53;;;8.60;99.90;;;;;;5023048;28;20116;-50
2023/04/16 05:33:36;;;;;;;55.27;24.23;;;8.50;99.90;;;;;;5018727;28;20044;-50
2023/04/16 05:36:01;;;;;;;59.73;23.63;;;8.60;99.90;;;;;;5020868;28;20387;-48
2023/04/16 05:38:27;;;;;;;60.67;24.43;;;8.60;99.90;;;;;;5024352;28;20061;-48
2023/04/16 05:40:53;;;;;;;55.40;23.87;;;8.50;99.90;;;;;;5022855;28;20045;-48
2023/04/16 05:43:18;;;;;;;53.27;22.97;;;8.60;99.90;;;;;;5024742;28;20056;-49
2023/04/16 05:45:44;;;;;;;44.87;22.53;;;8.60;99.90;;;;;;5022861;28;20037;-51
2023/04/16 05:48:10;;;;;;;55.53;22.93;;;8.60;99.90;;;;;;5022791;28;20083;-49
2023/04/16 05:50:36;;;;;;;58.53;23.83;;;8.60;99.90;;;;;;5021662;28;20029;-48
2023/04/16 05:53:05;;;;;;;64.43;26.20;;;8.50;99.90;;;;;;5011073;28;20714;-52
2023/04/16 05:55:31;;;;;;;60.13;24.25;;;8.40;99.90;;;;;;5011827;28;20041;-50
2023/04/16 05:57:57;;;;;;;60.70;24.83;;;8.40;99.90;;;;;;5012085;28;20026;-53
2023/04/16 06:00:23;;;;;;;66.17;27.03;;;8.40;99.90;;;;;;5012254;28;20392;-50
2023/04/16 06:02:49;;;;;;;59.60;25.13;;;8.40;99.90;;;;;;5011702;28;20032;-51
2023/04/16 06:05:15;;;;;;;67.73;27.57;;;8.40;99.90;;;;;;5011960;28;20034;-48
2023/04/16 06:07:41;;;;;;;68.83;29.00;;;8.40;99.90;;;;;;5011630;28;20604;-49
2023/04/16 06:10:07;;;;;;;70.00;28.47;;;8.40;99.90;;;;;;5011957;28;20110;-52
2023/04/16 06:12:33;;;;;;;72.87;28.27;;;8.40;99.90;;;;;;5011798;28;20037;-49
2023/04/16 06:14:59;;;;;;;66.17;29.33;;;8.40;99.90;;;;;;5011754;28;20026;-50
2023/04/16 06:17:26;;;;;;;68.10;28.97;;;8.40;99.90;;;;;;5011553;28;20030;-53
2023/04/16 06:19:51;;;;;;;69.10;28.63;;;8.40;99.90;;;;;;5011774;28;20058;-50
2023/04/16 06:22:17;;;;;;;63.73;27.90;;;8.40;99.90;;;;;;5011707;28;20049;-53
2023/04/16 06:24:43;;;;;;;66.50;28.27;;;8.40;99.90;;;;;;5011460;28;20395;-51
2023/04/16 06:27:09;;;;;;;64.37;27.50;;;8.50;99.90;;;;;;5011162;28;20065;-50
2023/04/16 06:29:35;;;;;;;60.90;26.77;;;8.50;99.90;;;;;;5011708;28;20050;-53
2023/04/16 06:32:02;;;;;;;58.30;26.27;;;8.40;99.90;;;;;;5011836;28;20517;-53
2023/04/16 06:34:28;;;;;;;62.60;27.53;;;8.40;99.90;;;;;;5011462;28;20034;-51
2023/04/16 06:36:54;;;;;;;57.43;26.27;;;8.50;99.90;;;;;;5011184;28;20474;-48
2023/04/16 06:39:20;;;;;;;58.50;26.00;;;8.50;99.90;;;;;;5011437;28;20116;-48
2023/04/16 06:41:47;;;;;;;53.20;25.57;;;8.50;99.90;;;;;;5022030;28;20153;-51
2023/04/16 06:44:13;;;;;;;53.07;25.00;;;8.50;99.90;;;;;;5020230;28;20034;-50
2023/04/16 06:46:39;;;;;;;47.83;23.80;;;8.60;99.90;;;;;;5015120;28;20034;-49
2023/04/16 06:49:06;;;;;;;44.50;24.43;;;8.60;99.90;;;;;;5011238;28;20099;-48
2023/04/16 06:51:32;;;;;;;50.83;24.57;;;8.60;99.90;;;;;;5011708;28;20521;-49
2023/04/16 06:53:58;;;;;;;47.60;23.80;;;8.70;99.90;;;;;;5010982;28;20030;-49
2023/04/16 06:56:23;;;;;;;44.50;24.20;;;8.60;99.90;;;;;;5011101;28;20124;-51
2023/04/16 06:58:50;;;;;;;47.17;24.80;;;8.70;99.90;;;;;;5011065;28;20179;-48
2023/04/16 07:01:16;;;;;;;45.43;23.43;;;8.70;99.90;;;;;;5022226;28;20029;-50
2023/04/16 07:03:43;;;;;;;47.13;23.90;;;8.70;99.90;;;;;;5030731;28;20029;-49
2023/04/16 07:06:09;;;;;;;45.63;24.27;;;8.70;99.90;;;;;;5030198;28;20379;-46
2023/04/16 07:08:34;;;;;;;46.73;25.30;;;8.80;99.90;;;;;;5030313;28;20030;-47
2023/04/16 07:11:00;;;;;;;50.33;23.93;;;8.90;99.90;;;;;;5030650;28;20025;-51
2023/04/16 07:13:26;;;;;;;45.33;22.77;;;8.90;99.90;;;;;;5030422;28;20051;-48
2023/04/16 07:15:52;;;;;;;49.13;23.67;;;8.90;99.90;;;;;;5030716;28;20035;-47
2023/04/16 07:18:18;;;;;;;45.60;24.10;;;8.90;99.90;;;;;;5030387;28;20032;-48
2023/04/16 07:20:44;;;;;;;46.33;24.03;;;9.00;99.90;;;;;;5030526;28;20588;-53
2023/04/16 07:23:10;;;;;;;48.17;24.07;;;9.00;99.90;;;;;;5017552;28;20025;-47
2023/04/16 07:25:36;;;;;;;45.60;23.13;;;9.10;99.90;;;;;;5010487;28;20037;-49
2023/04/16 07:28:03;;;;;;;46.60;22.57;;;9.10;99.90;;;;;;5009883;28;20037;-47
2023/04/16 07:30:33;;;;;;;45.53;23.17;;;9.20;99.90;;;;;;5010450;28;20026;-52
2023/04/16 07:33:01;;;;;;;44.63;24.10;;;9.30;99.90;;;;;;5010576;28;20059;-49
2023/04/16 07:35:27;;;;;;;42.90;23.17;;;9.30;99.90;;;;;;5027924;28;20025;-53
2023/04/16 07:37:53;;;;;;;42.17;22.13;;;9.40;99.90;;;;;;5029710;28;20684;-53
2023/04/16 07:40:19;;;;;;;44.17;23.20;;;9.50;99.90;;;;;;5030106;28;20022;-51
2023/04/16 07:42:45;;;;;;;39.83;22.43;;;9.60;99.90;;;;;;5030180;28;20029;-49
2023/04/16 07:45:11;;;;;;;42.90;23.17;;;9.70;99.90;;;;;;5029922;28;20536;-49
2023/04/16 07:47:37;;;;;;;42.30;22.93;;;9.70;99.90;;;;;;5029528;28;20037;-52
2023/04/16 07:50:04;;;;;;;39.30;21.23;;;9.80;99.90;;;;;;5029991;28;20036;-49
2023/04/16 07:52:30;;;;;;;41.07;22.10;;;9.90;99.90;;;;;;5029970;28;20056;-49
2023/04/16 07:54:56;;;;;;;41.27;21.90;;;10.00;99.90;;;;;;5029907;28;20111;-52
2023/04/16 07:57:22;;;;;;;39.13;21.90;;;10.00;99.90;;;;;;5029579;28;20032;-51
2023/04/16 07:59:48;;;;;;;40.53;22.63;;;10.00;99.90;;;;;;5029997;28;20033;-52
2023/04/16 08:02:15;;;;;;;39.80;21.23;;;10.00;99.90;;;;;;5029788;28;20056;-53
2023/04/16 08:04:42;;;;;;;37.93;21.43;;;10.00;99.90;;;;;;5029713;28;20097;-51
2023/04/16 08:07:08;;;;;;;40.13;21.17;;;10.00;99.90;;;;;;5029521;28;20056;-52
2023/04/16 08:09:35;;;;;;;38.03;21.63;;;10.00;99.90;;;;;;5029847;28;20057;-51
2023/04/16 08:12:01;;;;;;;38.37;20.47;;;10.00;99.90;;;;;;5011933;28;20037;-49
2023/04/16 08:14:27;;;;;;;39.53;22.57;;;9.90;99.90;;;;;;4988650;28;20038;-51
2023/04/16 08:16:53;;;;;;;38.37;21.53;;;9.90;99.90;;;;;;5009761;28;20613;-46
2023/04/16 08:19:19;;;;;;;40.23;21.50;;;10.00;99.90;;;;;;5011717;28;20040;-48
2023/04/16 08:21:45;;;;;;;40.33;20.63;;;10.00;99.90;;;;;;5013788;28;20438;-47
2023/04/16 08:24:11;;;;;;;37.23;21.13;;;10.00;99.90;;;;;;5013092;28;20058;-49
2023/04/16 08:26:37;;;;;;;37.27;21.73;;;10.10;99.90;;;;;;4995875;28;20521;-51
2023/04/16 08:29:02;;;;;;;36.60;20.03;;;10.10;99.90;;;;;;5013421;28;20525;-48
2023/04/16 08:31:28;;;;;;;37.33;20.43;;;10.20;99.90;;;;;;5013547;28;20398;-49
2023/04/16 08:33:54;;;;;;;36.60;20.70;;;10.30;99.90;;;;;;5013044;28;20038;-47
2023/04/16 08:36:20;;;;;;;35.83;20.80;;;10.40;99.90;;;;;;5013222;28;20054;-49
2023/04/16 08:38:45;;;;;;;38.53;21.47;;;10.50;99.90;;;;;;5013362;28;20022;-52
2023/04/16 08:41:12;;;;;;;36.10;21.13;;;10.60;99.90;;;;;;5013483;28;20466;-49
2023/04/16 08:43:43;;;;;;;37.10;20.80;;;10.70;99.90;;;;;;5013094;28;20045;-53
2023/04/16 08:46:10;;;;;;;33.40;19.73;;;10.90;99.90;;;;;;5012863;28;20441;-49
2023/04/16 08:48:37;;;;;;;35.30;20.40;;;11.00;99.90;;;;;;5013050;28;20037;-50
2023/04/16 08:51:07;;;;;;;35.00;20.73;;;11.20;99.90;;;;;;5013132;28;20030;-53
2023/04/16 08:53:47;;;;;;;30.67;18.53;;;11.20;99.90;;;;;;5013258;28;20030;-50
2023/04/16 08:56:14;;;;;;;36.10;21.13;;;11.30;99.90;;;;;;5012952;28;20427;-51
2023/04/16 08:58:40;;;;;;;35.43;20.50;;;11.40;99.90;;;;;;5012893;28;20038;-47
2023/04/16 09:01:08;;;;;;;35.27;19.67;;;11.50;99.90;;;;;;5013170;28;20025;-49
2023/04/16 09:03:35;;;;;;;32.87;18.73;;;11.50;99.90;;;;;;5012686;28;20034;-48
2023/04/16 09:06:03;;;;;;;32.27;19.03;;;11.60;99.90;;;;;;5012545;28;20087;-47
2023/04/16 09:08:29;;;;;;;33.27;19.83;;;11.50;99.90;;;;;;4995157;28;20061;-48
2023/04/16 09:10:56;;;;;;;33.60;19.13;;;11.50;99.90;;;;;;5012738;28;20025;-52
2023/04/16 09:13:22;;;;;;;34.97;19.97;;;11.50;99.90;;;;;;5011407;28;20041;-47
2023/04/16 09:15:55;;;;;;;31.27;18.43;;;11.50;99.90;;;;;;5012629;28;20026;-49
2023/04/16 09:18:22;;;;;;;30.57;17.30;;;11.50;99.90;;;;;;5012695;28;20041;-49
2023/04/16 09:20:49;;;;;;;28.13;17.98;;;11.70;99.90;;;;;;5012583;28;20034;-49
2023/04/16 09:23:16;;;;;;;29.10;18.42;;;11.90;99.90;;;;;;5012577;28;20068;-48
2023/04/16 09:25:41;;;;;;;30.75;18.85;;;12.00;99.90;;;;;;5011746;28;20057;-52
2023/04/16 09:28:08;;;;;;;29.93;17.87;;;12.10;99.90;;;;;;5012145;28;20475;-45
2023/04/16 09:30:36;;;;;;;33.00;19.48;;;12.10;99.90;;;;;;5011591;28;20026;-48
2023/04/16 09:33:11;;;;;;;32.20;18.42;;;12.10;99.90;;;;;;5012602;28;20033;-47
2023/04/16 09:35:47;;;;;;;27.83;18.02;;;12.10;99.90;;;;;;5011993;28;20061;-48
2023/04/16 09:38:13;;;;;;;31.08;18.17;;;12.20;99.90;;;;;;5017033;28;20034;-48
2023/04/16 09:40:39;;;;;;;28.40;17.48;;;12.10;99.90;;;;;;5019798;28;20414;-50
2023/04/16 09:43:16;;;;;;;30.77;16.98;;;12.20;99.90;;;;;;5019868;28;20078;-47
2023/04/16 09:45:49;;;;;;;27.40;16.45;;;12.30;99.90;;;;;;5022905;28;20022;-47
2023/04/16 09:48:26;;;;;;;27.80;16.77;;;12.30;99.90;;;;;;5018489;28;20064;-50
2023/04/16 09:50:52;;;;;;;30.88;17.70;;;12.30;99.90;;;;;;5022537;28;20030;-49
2023/04/16 09:53:29;;;;;;;30.25;17.38;;;12.30;99.90;;;;;;5023841;28;20410;-47
2023/04/16 09:55:56;;;;;;;28.85;16.58;;;12.30;99.90;;;;;;5020154;28;20034;-48
2023/04/16 09:58:23;;;;;;;27.92;17.20;;;12.30;99.90;;;;;;5021729;28;20395;-50
2023/04/16 10:00:54;;;;;;;26.90;16.23;;;12.30;99.90;;;;;;5022769;28;20033;-49
2023/04/16 10:03:31;;;;;;;26.13;15.95;;;12.60;99.90;;;;;;5021180;28;20398;-50
2023/04/16 10:06:18;;;;;;;23.60;14.65;;;12.70;99.90;;;;;;5025434;28;20022;-48
2023/04/16 10:08:48;;;;;;;23.10;14.55;;;12.80;99.90;;;;;;5031469;28;20095;-50
2023/04/16 10:11:15;;;;;;;23.05;14.77;;;12.90;99.90;;;;;;5031418;28;20045;-50
2023/04/16 10:13:41;;;;;;;30.20;19.48;;;12.80;99.90;;;;;;5030909;28;20060;-49
2023/04/16 10:16:10;;;;;;;22.15;14.18;;;12.80;99.90;;;;;;5031487;28;20551;-50
2023/04/16 10:18:40;;;;;;;21.65;14.10;;;12.90;99.90;;;;;;5030988;28;20625;-47
2023/04/16 10:21:06;;;;;;;19.77;13.50;;;13.00;99.90;;;;;;5031018;28;20389;-48
2023/04/16 10:23:32;;;;;;;20.95;14.00;;;13.10;99.90;;;;;;5031012;28;20026;-51
2023/04/16 10:26:00;;;;;;;25.90;15.10;;;13.10;99.90;;;;;;5031020;28;20616;-49
2023/04/16 10:28:27;;;;;;;24.15;15.05;;;13.30;99.90;;;;;;5030596;28;20631;-50
2023/04/16 10:30:55;;;;;;;24.55;14.85;;;13.50;99.90;;;;;;5031131;28;20029;-51
2023/04/16 10:33:27;;;;;;;28.63;15.43;;;13.60;99.90;;;;;;5030782;28;20109;-51
2023/04/16 10:36:14;;;;;;;23.88;16.02;;;13.60;99.90;;;;;;5031074;28;20025;-45
2023/04/16 10:38:48;;;;;;;26.92;16.38;;;13.40;99.90;;;;;;5030535;28;20124;-48
2023/04/16 10:41:14;;;;;;;27.90;16.23;;;13.10;99.90;;;;;;5030441;28;20576;-48
2023/04/16 10:43:42;;;;;;;22.33;14.75;;;13.10;99.90;;;;;;5030513;28;20056;-48
2023/04/16 10:46:19;;;;;;;26.80;16.88;;;13.10;99.90;;;;;;5030818;28;20470;-48
2023/04/16 10:48:46;;;;;;;24.27;14.32;;;13.10;99.90;;;;;;5030453;28;20122;-50
2023/04/16 10:51:27;;;;;;;25.20;14.40;;;13.20;99.90;;;;;;5030658;28;20040;-46
2023/04/16 10:54:01;;;;;;;22.98;14.23;;;13.30;99.90;;;;;;5030444;28;20029;-48
2023/04/16 10:56:31;;;;;;;23.73;14.25;;;13.40;99.90;;;;;;5030544;28;20040;-45
2023/04/16 10:58:57;;;;;;;22.23;13.55;;;13.80;99.90;;;;;;5030308;28;20653;-46
2023/04/16 11:01:30;;;;;;;19.58;13.00;;;14.20;99.90;;;;;;5030572;28;20180;-49
2023/04/16 11:04:01;;;;;;;21.70;13.77;;;14.70;99.90;;;;;;5030442;28;20036;-47
2023/04/16 11:06:27;;;;;;;18.08;12.45;;;14.90;99.90;;;;;;5030390;28;20061;-50
2023/04/16 11:08:53;;;;;;;16.98;12.15;;;14.80;99.90;;;;;;5030358;28;20033;-45
2023/04/16 11:11:20;;;;;;;19.83;13.30;;;14.70;99.90;;;;;;5030454;28;20033;-47
2023/04/16 11:13:45;;;;;;;18.63;12.43;;;14.50;99.90;;;;;;5030152;28;20060;-49
2023/04/16 11:16:15;;;;;;;19.80;13.48;;;14.20;99.90;;;;;;5030281;28;20118;-50
2023/04/16 11:18:43;;;;;;;19.70;12.98;;;13.80;99.90;;;;;;5030435;28;20065;-49
2023/04/16 11:21:11;;;;;;;24.95;13.60;;;13.80;99.90;;;;;;5030262;28;20116;-51
2023/04/16 11:23:50;;;;;;;17.92;12.68;;;13.70;99.90;;;;;;5030204;28;20446;-47
2023/04/16 11:26:31;;;;;;;18.75;11.98;;;13.80;99.90;;;;;;5030368;28;20022;-49
2023/04/16 11:28:59;;;;;;;17.13;11.75;;;13.90;99.90;;;;;;5030144;28;20036;-48
2023/04/16 11:31:26;;;;;;;18.55;11.57;;;14.00;99.90;;;;;;5030112;28;20037;-49
2023/04/16 11:33:51;;;;;;;18.88;12.55;;;14.00;99.90;;;;;;5012698;28;20394;-51
2023/04/16 11:36:17;;;;;;;18.52;12.60;;;14.10;99.90;;;;;;5010620;28;20030;-47
2023/04/16 11:38:43;;;;;;;16.98;12.35;;;14.00;99.90;;;;;;5010572;28;20037;-51
2023/04/16 11:41:09;;;;;;;17.63;12.38;;;14.10;99.90;;;;;;5010667;28;20105;-47
2023/04/16 11:43:36;;;;;;;18.30;11.93;;;14.30;99.90;;;;;;5010472;28;20503;-48
2023/04/16 11:46:04;;;;;;;17.75;12.20;;;14.50;99.90;;;;;;5010529;28;20045;-50
2023/04/16 11:49:05;;;;;;;19.30;12.37;;;14.70;99.90;;;;;;5010447;28;20084;-47
2023/04/16 11:51:31;;;;;;;16.40;11.38;;;15.40;99.90;;;;;;4930817;29;21025;-47
2023/04/16 11:53:57;;;;;;;16.77;11.48;;;15.80;99.90;;;;;;4997302;28;20030;-50
2023/04/16 11:56:28;;;;;;;16.15;11.20;;;15.90;99.90;;;;;;5014612;28;20061;-47
2023/04/16 11:59:22;;;;;;;16.25;11.13;;;15.90;99.90;;;;;;5014621;28;20041;-46
2023/04/16 12:01:54;;;;;;;15.85;11.73;;;15.90;99.90;;;;;;5014600;28;20033;-47
2023/04/16 12:04:21;;;;;;;18.63;12.05;;;15.80;99.90;;;;;;5014455;28;20034;-50
2023/04/16 12:07:12;;;;;;;18.20;11.85;;;15.60;99.90;;;;;;5013962;28;20061;-47
2023/04/16 12:09:42;;;;;;;17.13;11.48;;;15.50;99.90;;;;;;5014576;28;20036;-47
2023/04/16 12:12:30;;;;;;;17.08;11.60;;;15.90;99.90;;;;;;5014515;28;20136;-52
2023/04/16 12:14:58;;;;;;;15.73;11.48;;;15.90;99.90;;;;;;5014530;28;20033;-50
2023/04/16 12:17:24;;;;;;;15.87;10.83;;;15.70;99.90;;;;;;5013911;28;20042;-47
2023/04/16 12:19:58;;;;;;;15.55;10.70;;;15.80;99.90;;;;;;5014825;28;20054;-48
2023/04/16 12:22:33;;;;;;;16.08;10.93;;;15.80;99.90;;;;;;5014325;28;20066;-49
2023/04/16 12:25:20;;;;;;;15.75;11.75;;;15.70;99.90;;;;;;5014131;28;20124;-48
2023/04/16 12:27:52;;;;;;;15.13;11.18;;;15.50;99.90;;;;;;5013074;28;20042;-49
2023/04/16 12:30:21;;;;;;;16.08;10.40;;;15.30;99.90;;;;;;5013982;28;20034;-47
2023/04/16 12:32:49;;;;;;;17.50;11.23;;;15.40;99.90;;;;;;5014165;28;20034;-51
2023/04/16 12:35:32;;;;;;;16.27;10.77;;;15.00;99.90;;;;;;5013837;28;20033;-48
2023/04/16 12:37:58;;;;;;;18.02;11.77;;;14.80;99.90;;;;;;5013556;28;20876;-48